Time;durP1;ratioP1;P1;durP2;ratioP2;P2;SDS_P1;SDS_P2;PMS_P1;PMS_P2;Temp;Humidity;BMP_temperature;BMP_pressure;BME280_temperature;BME280_humidity;BME280_pressure;Samples;Min_cycle;Max_cycle;Signal;HPM_P1;HPM_P2
2023/10/04 00:00:20;;;;;;;4.75;1.60;;;;;;;9.34;100.00;98428.91;5003471;28;20041;-63
2023/10/04 00:02:52;;;;;;;4.10;1.45;;;;;;;9.35;100.00;98428.69;5003044;28;20054;-63
2023/10/04 00:05:22;;;;;;;9.55;2.25;;;;;;;9.33;100.00;98429.94;5000846;28;20554;-63
2023/10/04 00:07:55;;;;;;;4.35;1.40;;;;;;;9.28;100.00;98443.28;5003976;28;20116;-63
2023/10/04 00:10:23;;;;;;;7.63;1.60;;;;;;;9.15;100.00;98442.31;5003551;28;20040;-63
2023/10/04 00:12:51;;;;;;;6.20;1.50;;;;;;;9.09;100.00;98443.16;5002001;28;20041;-63
2023/10/04 00:15:20;;;;;;;6.85;2.35;;;;;;;9.10;100.00;98459.16;5003503;28;20103;-63
2023/10/04 00:17:47;;;;;;;5.70;2.45;;;;;;;9.15;100.00;98476.59;5005305;28;20050;-63
2023/10/04 00:20:16;;;;;;;6.47;1.67;;;;;;;9.18;100.00;98462.69;5002945;28;20038;-64
2023/10/04 00:22:46;;;;;;;4.55;1.83;;;;;;;9.28;100.00;98460.31;5003669;28;20054;-63
2023/10/04 00:25:20;;;;;;;5.63;1.75;;;;;;;9.37;100.00;98455.50;5002784;28;20054;-63
2023/10/04 00:27:48;;;;;;;3.90;2.08;;;;;;;9.46;100.00;98451.50;5001240;28;20054;-63
2023/10/04 00:30:16;;;;;;;5.53;2.08;;;;;;;9.55;100.00;98445.81;5002689;28;20088;-63
2023/10/04 00:32:46;;;;;;;4.55;1.55;;;;;;;9.54;100.00;98436.88;5005173;28;20402;-63
2023/10/04 00:35:17;;;;;;;4.80;1.38;;;;;;;9.61;100.00;98439.53;5002852;28;20754;-63
2023/10/04 00:37:47;;;;;;;7.32;1.65;;;;;;;9.54;100.00;98436.88;5000015;28;20049;-63
2023/10/04 00:40:21;;;;;;;4.70;1.85;;;;;;;9.47;100.00;98436.91;5002268;28;20053;-63
2023/10/04 00:42:49;;;;;;;4.70;1.77;;;;;;;9.41;100.00;98440.50;5006777;28;20038;-63
2023/10/04 00:45:17;;;;;;;4.50;1.50;;;;;;;9.39;100.00;98442.59;5003046;28;20048;-64
2023/10/04 00:47:48;;;;;;;6.50;1.70;;;;;;;9.24;100.00;98442.88;4989679;28;20057;-63
2023/10/04 00:50:15;;;;;;;3.33;1.38;;;;;;;8.93;100.00;98456.16;5001815;28;20041;-63
2023/10/04 00:52:49;;;;;;;4.85;1.63;;;;;;;8.77;100.00;98467.41;4999499;28;20045;-64
2023/10/04 00:55:21;;;;;;;7.65;2.15;;;;;;;8.75;100.00;98480.28;4982920;28;20100;-63
2023/10/04 00:57:51;;;;;;;3.50;1.60;;;;;;;9.02;100.00;98489.13;4999973;28;20071;-63
2023/10/04 01:00:19;;;;;;;4.95;1.45;;;;;;;9.22;100.00;98469.31;5001229;28;20119;-63
2023/10/04 01:02:47;;;;;;;4.10;1.42;;;;;;;9.41;100.00;98435.09;5001870;28;20049;-64
2023/10/04 01:05:15;;;;;;;5.40;1.50;;;;;;;9.55;100.00;98422.28;5001560;28;20054;-63
2023/10/04 01:07:44;;;;;;;3.90;1.70;;;;;;;9.52;100.00;98420.06;4985619;28;20133;-63
2023/10/04 01:10:15;;;;;;;4.57;1.60;;;;;;;9.48;100.00;98426.94;5002402;28;20055;-63
2023/10/04 01:12:46;;;;;;;3.53;1.42;;;;;;;9.40;100.00;98427.19;5001363;28;20843;-64
2023/10/04 01:15:49;;;;;;;5.63;1.63;;;;;;;9.21;100.00;98424.38;5002006;28;20042;-64
2023/10/04 01:18:11;;;;;;;4.45;1.67;;;;;;;9.02;100.00;98436.97;4996793;28;20077;-63
2023/10/04 01:20:39;;;;;;;4.60;1.52;;;;;;;8.80;100.00;98440.81;4994610;28;20121;-63
2023/10/04 01:23:09;;;;;;;5.05;2.08;;;;;;;8.65;100.00;98454.56;4988853;28;20049;-63
2023/10/04 01:25:38;;;;;;;5.03;1.73;;;;;;;8.45;100.00;98450.00;5008605;28;20075;-64
2023/10/04 01:28:12;;;;;;;6.15;2.20;;;;;;;8.38;100.00;98459.19;5008934;28;20053;-63
2023/10/04 01:30:43;;;;;;;5.20;1.70;;;;;;;8.62;100.00;98455.00;5020825;28;20050;-63
2023/10/04 01:33:15;;;;;;;4.15;1.50;;;;;;;8.79;100.00;98449.97;5004296;28;20050;-63
2023/10/04 01:35:49;;;;;;;5.05;1.70;;;;;;;8.66;100.00;98442.72;5003350;28;20125;-64
2023/10/04 01:38:16;;;;;;;5.10;1.50;;;;;;;8.52;100.00;98444.59;5006232;28;20123;-63
2023/10/04 01:40:47;;;;;;;3.72;1.30;;;;;;;8.36;100.00;98440.50;5000982;28;20057;-63
2023/10/04 01:43:17;;;;;;;4.80;1.40;;;;;;;8.23;100.00;98452.16;5009644;28;20040;-63
2023/10/04 01:45:57;;;;;;;5.28;1.73;;;;;;;8.21;100.00;98459.63;5001623;28;20068;-63
2023/10/04 01:48:26;;;;;;;5.32;1.33;;;;;;;8.05;100.00;98459.03;5005585;28;20050;-64
2023/10/04 01:50:53;;;;;;;4.30;1.77;;;;;;;8.19;100.00;98476.00;5006124;28;20040;-63
2023/10/04 01:53:22;;;;;;;5.72;2.05;;;;;;;8.16;100.00;98475.59;5002721;28;20122;-64
2023/10/04 01:55:49;;;;;;;5.75;2.08;;;;;;;8.21;100.00;98483.91;5006799;28;20050;-63
2023/10/04 01:58:21;;;;;;;4.28;1.60;;;;;;;8.14;100.00;98472.31;4987560;28;20545;-63
2023/10/04 02:00:48;;;;;;;3.45;1.52;;;;;;;8.21;100.00;98478.50;5005964;28;20109;-63
2023/10/04 02:03:16;;;;;;;6.53;2.08;;;;;;;8.51;100.00;98504.22;5004239;28;20513;-63
2023/10/04 02:05:43;;;;;;;6.78;1.85;;;;;;;8.46;100.00;98461.66;5006320;28;20034;-63
2023/10/04 02:08:10;;;;;;;6.10;2.05;;;;;;;8.52;100.00;98460.78;5005513;28;20529;-63
2023/10/04 02:10:36;;;;;;;6.68;2.60;;;;;;;8.53;100.00;98450.88;5005199;28;20061;-63
2023/10/04 02:13:06;;;;;;;5.88;1.90;;;;;;;8.65;100.00;98454.56;4987535;28;20053;-63
2023/10/04 02:15:34;;;;;;;5.38;1.98;;;;;;;8.69;100.00;98454.97;4988216;28;20595;-63
2023/10/04 02:18:01;;;;;;;7.32;1.73;;;;;;;8.75;100.00;98451.44;5005037;28;20042;-63
2023/10/04 02:20:32;;;;;;;4.75;1.90;;;;;;;8.78;100.00;98442.91;5004277;28;20041;-63
2023/10/04 02:22:59;;;;;;;5.63;2.30;;;;;;;8.89;100.00;98445.97;5001730;28;20050;-63
2023/10/04 02:25:26;;;;;;;6.00;1.45;;;;;;;8.92;100.00;98438.25;5006825;28;20528;-63
2023/10/04 02:27:53;;;;;;;5.50;1.45;;;;;;;8.91;100.00;98443.88;5004889;28;20511;-64
2023/10/04 02:30:23;;;;;;;6.78;2.40;;;;;;;8.90;100.00;98445.75;5001191;28;20516;-63
2023/10/04 02:32:50;;;;;;;4.57;1.70;;;;;;;8.80;100.00;98445.38;4999273;28;20045;-63
2023/10/04 02:35:27;;;;;;;3.65;1.42;;;;;;;8.87;100.00;98443.47;5004435;28;20046;-63
2023/10/04 02:38:00;;;;;;;8.13;1.90;;;;;;;8.91;100.00;98447.41;4986419;28;20060;-64
2023/10/04 02:40:27;;;;;;;3.40;1.45;;;;;;;8.88;100.00;98447.84;5016913;28;20160;-63
2023/10/04 02:42:55;;;;;;;9.68;2.03;;;;;;;8.96;100.00;98447.59;4986874;28;20386;-63
2023/10/04 02:45:24;;;;;;;6.20;2.05;;;;;;;8.90;100.00;98447.63;5000232;28;20038;-63
2023/10/04 02:47:53;;;;;;;4.82;1.75;;;;;;;8.69;100.00;98447.72;4990310;28;20509;-63
2023/10/04 02:50:21;;;;;;;4.50;1.83;;;;;;;8.49;100.00;98449.59;4989540;28;20053;-63
2023/10/04 02:52:50;;;;;;;5.63;1.80;;;;;;;8.52;100.00;98451.88;5002808;28;20034;-63
2023/10/04 02:55:18;;;;;;;6.95;1.77;;;;;;;8.22;100.00;98463.97;4985564;28;20677;-63
2023/10/04 02:57:49;;;;;;;4.97;1.75;;;;;;;8.10;100.00;98479.97;4988426;28;20088;-63
2023/10/04 03:00:19;;;;;;;6.80;1.92;;;;;;;8.13;100.00;98494.91;5002774;28;20512;-63
2023/10/04 03:02:52;;;;;;;3.95;1.70;;;;;;;8.19;100.00;98494.91;4991188;28;20457;-63
2023/10/04 03:05:22;;;;;;;7.13;2.10;;;;;;;8.29;100.00;98493.66;4984829;28;20482;-63
2023/10/04 03:07:52;;;;;;;5.80;1.80;;;;;;;8.34;100.00;98485.75;4989247;28;20484;-63
2023/10/04 03:10:23;;;;;;;7.63;2.00;;;;;;;8.40;100.00;98478.69;4985868;28;20038;-64
2023/10/04 03:12:56;;;;;;;5.40;1.80;;;;;;;8.36;100.00;98480.97;4989216;28;20046;-63
2023/10/04 03:15:23;;;;;;;4.35;2.15;;;;;;;8.25;100.00;98465.44;4996904;28;20069;-63
2023/10/04 03:17:52;;;;;;;5.18;2.05;;;;;;;8.22;100.00;98472.06;5008157;28;20046;-63
2023/10/04 03:20:21;;;;;;;3.60;1.35;;;;;;;8.07;100.00;98481.22;4982709;28;20057;-62
2023/10/04 03:22:55;;;;;;;5.13;1.88;;;;;;;8.03;100.00;98487.22;4986412;28;20468;-63
2023/10/04 03:25:26;;;;;;;4.57;1.95;;;;;;;8.08;100.00;98487.44;4980778;28;20103;-63
2023/10/04 03:27:55;;;;;;;5.88;1.90;;;;;;;8.22;100.00;98496.34;5001816;28;20086;-63
2023/10/04 03:30:23;;;;;;;3.75;1.80;;;;;;;8.28;100.00;98490.13;5001560;28;20045;-63
2023/10/04 03:32:53;;;;;;;4.55;1.85;;;;;;;8.30;100.00;98493.44;4995654;28;20046;-64
2023/10/04 03:35:26;;;;;;;5.72;2.20;;;;;;;8.39;100.00;98488.66;5016319;28;20042;-63
2023/10/04 03:37:58;;;;;;;4.50;1.70;;;;;;;8.49;100.00;98480.13;4991318;28;20049;-63
2023/10/04 03:40:34;;;;;;;4.85;1.52;;;;;;;8.53;100.00;98480.56;4984419;28;20132;-63
2023/10/04 03:43:07;;;;;;;8.15;2.20;;;;;;;8.64;100.00;98473.69;4985815;28;20492;-63
2023/10/04 03:45:39;;;;;;;4.63;1.95;;;;;;;8.57;100.00;98471.00;4984605;28;20095;-63
2023/10/04 03:48:17;;;;;;;6.55;1.90;;;;;;;8.35;100.00;98465.84;4985096;28;20073;-63
2023/10/04 03:50:51;;;;;;;4.53;2.03;;;;;;;8.29;100.00;98467.50;4985474;28;20050;-63
2023/10/04 03:53:21;;;;;;;5.45;2.42;;;;;;;8.17;100.00;98470.00;4984719;28;20265;-65
2023/10/04 03:55:50;;;;;;;7.10;3.05;;;;;;;8.00;100.00;98476.88;4988372;28;20046;-63
2023/10/04 03:58:19;;;;;;;5.20;2.55;;;;;;;7.92;100.00;98502.16;5001074;28;20057;-63
2023/10/04 04:00:46;;;;;;;4.57;1.90;;;;;;;7.90;100.00;98507.78;5002552;28;20046;-63
2023/10/04 04:03:12;;;;;;;4.10;1.95;;;;;;;7.88;100.00;98517.94;5002298;28;20496;-63
2023/10/04 04:05:42;;;;;;;5.40;2.30;;;;;;;7.80;100.00;98508.19;5003225;28;20132;-63
2023/10/04 04:08:09;;;;;;;6.13;1.98;;;;;;;7.66;100.00;98496.53;4986058;28;20038;-63
2023/10/04 04:10:36;;;;;;;4.40;2.00;;;;;;;7.61;100.00;98493.63;5000931;28;20042;-63
2023/10/04 04:13:06;;;;;;;5.05;2.33;;;;;;;7.44;100.00;98497.75;5002946;28;20089;-63
2023/10/04 04:15:36;;;;;;;5.25;1.92;;;;;;;7.42;100.00;98523.03;4985779;28;20103;-63
2023/10/04 04:18:06;;;;;;;4.35;2.00;;;;;;;7.40;100.00;98522.41;4986995;28;20593;-64
2023/10/04 04:20:35;;;;;;;6.47;2.03;;;;;;;7.45;100.00;98532.59;4984913;28;20050;-63
2023/10/04 04:23:04;;;;;;;5.23;2.53;;;;;;;7.43;100.00;98526.56;4985107;28;20737;-64
2023/10/04 04:25:32;;;;;;;10.13;3.17;;;;;;;7.35;100.00;98522.19;4990312;28;20301;-63
2023/10/04 04:28:01;;;;;;;7.57;2.40;;;;;;;7.44;100.00;98538.19;4991242;28;20127;-63
2023/10/04 04:30:31;;;;;;;7.53;2.80;;;;;;;7.48;100.00;98525.97;4983456;28;20533;-63
2023/10/04 04:33:02;;;;;;;7.07;2.58;;;;;;;7.38;100.00;98505.59;4986397;28;20034;-63
2023/10/04 04:35:47;;;;;;;5.33;2.30;;;;;;;7.31;100.00;98512.84;4983710;28;20048;-63
2023/10/04 04:38:19;;;;;;;3.90;2.15;;;;;;;7.18;100.00;98512.81;4989802;28;20323;-63
2023/10/04 04:40:48;;;;;;;9.32;2.55;;;;;;;7.08;100.00;98503.22;5003417;28;20045;-64
2023/10/04 04:45:56;;;;;;;4.70;2.10;;;;;;;7.04;100.00;98499.25;5002578;28;20038;-63
2023/10/04 04:48:35;;;;;;;5.13;1.88;;;;;;;6.95;100.00;98497.78;5001924;28;20042;-63
2023/10/04 04:51:11;;;;;;;5.32;2.50;;;;;;;6.87;100.00;98521.16;4985059;28;20038;-63
2023/10/04 04:53:47;;;;;;;7.88;2.85;;;;;;;6.98;100.00;98546.69;4985852;28;20046;-63
2023/10/04 04:56:21;;;;;;;5.40;2.00;;;;;;;6.95;100.00;98524.72;4999909;28;20048;-64
2023/10/04 04:58:51;;;;;;;5.30;2.33;;;;;;;6.76;100.00;98510.97;4987933;28;20049;-63
2023/10/04 05:01:18;;;;;;;6.05;2.17;;;;;;;6.59;100.00;98505.91;4989909;28;20042;-63
2023/10/04 05:03:50;;;;;;;4.63;2.10;;;;;;;6.63;100.00;98507.16;4985079;28;20513;-63
2023/10/04 05:06:24;;;;;;;5.13;2.30;;;;;;;6.62;100.00;98528.88;5006274;28;20575;-64
2023/10/04 05:08:56;;;;;;;4.10;2.53;;;;;;;6.68;100.00;98549.66;5007055;28;20458;-63
2023/10/04 05:11:24;;;;;;;5.32;2.30;;;;;;;6.66;100.00;98540.09;5004934;28;20065;-63
2023/10/04 05:13:55;;;;;;;5.30;2.17;;;;;;;6.61;100.00;98532.59;5006700;28;20038;-63
2023/10/04 05:16:22;;;;;;;6.45;2.25;;;;;;;6.65;100.00;98544.66;5008359;28;20116;-63
2023/10/04 05:18:49;;;;;;;8.57;2.33;;;;;;;6.68;100.00;98536.19;5006325;28;20064;-63
2023/10/04 05:21:16;;;;;;;5.35;2.60;;;;;;;6.63;100.00;98530.53;5003434;28;20116;-63
2023/10/04 05:23:42;;;;;;;4.55;2.28;;;;;;;6.61;100.00;98536.16;5002810;28;20042;-63
2023/10/04 05:26:11;;;;;;;6.13;2.60;;;;;;;6.58;100.00;98533.00;5004103;28;20041;-63
2023/10/04 05:28:37;;;;;;;5.13;2.53;;;;;;;6.58;100.00;98539.22;5002378;28;20077;-63
2023/10/04 05:31:04;;;;;;;5.50;2.05;;;;;;;6.64;100.00;98545.69;5004227;28;20042;-63
2023/10/04 05:33:31;;;;;;;7.55;2.58;;;;;;;6.79;100.00;98547.41;5004054;28;20042;-63
2023/10/04 05:36:00;;;;;;;4.75;2.35;;;;;;;6.62;100.00;98518.97;5004241;28;20046;-63
2023/10/04 05:38:28;;;;;;;6.05;2.38;;;;;;;6.64;100.00;98527.66;5000704;28;20045;-63
2023/10/04 05:40:55;;;;;;;5.18;1.92;;;;;;;6.54;100.00;98527.19;5004072;28;20057;-63
2023/10/04 05:43:21;;;;;;;5.40;2.97;;;;;;;6.62;100.00;98543.19;5003284;28;20042;-63
2023/10/04 05:45:49;;;;;;;6.25;2.40;;;;;;;6.80;100.00;98541.84;5004543;28;20057;-63
2023/10/04 05:48:19;;;;;;;5.82;2.67;;;;;;;6.75;100.00;98522.75;5003494;28;20128;-63
2023/10/04 05:50:49;;;;;;;4.63;2.30;;;;;;;6.69;100.00;98529.75;5004250;28;20524;-64
2023/10/04 05:53:20;;;;;;;5.50;2.45;;;;;;;6.76;100.00;98540.56;5002904;28;20038;-63
2023/10/04 05:55:48;;;;;;;4.97;2.37;;;;;;;6.67;100.00;98528.31;5004443;28;20057;-63
2023/10/04 05:58:16;;;;;;;11.50;2.47;;;;;;;6.56;100.00;98532.38;5005649;28;20056;-64
2023/10/04 06:00:52;;;;;;;5.30;2.67;;;;;;;6.68;100.00;98556.88;5004975;28;20766;-63
2023/10/04 06:03:20;;;;;;;4.93;2.60;;;;;;;6.79;100.00;98558.19;5004939;28;20065;-64
2023/10/04 06:05:47;;;;;;;6.78;2.85;;;;;;;6.81;100.00;98551.56;5006245;28;20058;-63
2023/10/04 06:08:21;;;;;;;6.47;3.05;;;;;;;6.95;100.00;98548.94;5004735;28;20050;-64
2023/10/04 06:10:51;;;;;;;7.30;3.00;;;;;;;7.15;100.00;98560.66;4996600;28;20049;-63
2023/10/04 06:13:22;;;;;;;4.40;2.58;;;;;;;7.27;100.00;98543.91;5003032;28;20072;-63
2023/10/04 06:15:50;;;;;;;5.13;2.63;;;;;;;7.11;100.00;98513.59;5010701;28;20038;-63
2023/10/04 06:18:17;;;;;;;5.45;2.63;;;;;;;7.08;100.00;98521.25;5007691;28;20041;-63
2023/10/04 06:20:45;;;;;;;5.28;2.60;;;;;;;7.17;100.00;98541.59;5001982;28;20046;-64
2023/10/04 06:23:14;;;;;;;7.43;2.88;;;;;;;7.37;100.00;98547.06;5001534;28;20053;-64
2023/10/04 06:25:46;;;;;;;6.47;2.70;;;;;;;7.50;100.00;98548.13;4997607;28;20057;-63
2023/10/04 06:28:13;;;;;;;6.97;3.35;;;;;;;7.68;100.00;98548.38;5002205;28;20052;-63
2023/10/04 06:30:42;;;;;;;8.40;3.03;;;;;;;7.79;100.00;98532.66;4999484;28;20046;-63
2023/10/04 06:33:10;;;;;;;7.00;2.88;;;;;;;7.81;100.00;98534.09;5000447;28;20125;-64
2023/10/04 06:35:38;;;;;;;7.00;2.60;;;;;;;7.96;100.00;98532.25;5002281;28;20109;-63
2023/10/04 06:38:06;;;;;;;10.38;2.63;;;;;;;8.05;100.00;98526.47;5002365;28;20038;-64
2023/10/04 06:40:33;;;;;;;6.72;2.20;;;;;;;8.19;100.00;98532.66;5001279;28;20069;-63
2023/10/04 06:43:06;;;;;;;4.95;2.35;;;;;;;8.34;100.00;98542.44;5002793;28;20552;-64
2023/10/04 06:45:34;;;;;;;7.13;2.40;;;;;;;8.50;100.00;98532.22;5002772;28;20569;-63
2023/10/04 06:48:04;;;;;;;5.10;2.53;;;;;;;8.56;100.00;98534.94;4985951;28;20697;-64
2023/10/04 06:50:43;;;;;;;5.82;2.05;;;;;;;8.64;100.00;98531.22;5002824;28;20057;-64
2023/10/04 06:53:10;;;;;;;6.22;2.28;;;;;;;8.73;100.00;98537.22;5002040;28;20026;-63
2023/10/04 06:55:38;;;;;;;11.27;2.70;;;;;;;8.80;100.00;98537.19;5001875;28;20153;-63
2023/10/04 06:58:07;;;;;;;5.38;2.17;;;;;;;8.89;100.00;98535.09;5001733;28;20048;-63
2023/10/04 07:00:37;;;;;;;5.13;2.08;;;;;;;8.97;100.00;98540.28;5002084;28;20172;-63
2023/10/04 07:03:05;;;;;;;7.43;1.80;;;;;;;9.09;100.00;98533.16;5001112;28;20809;-63
2023/10/04 07:05:36;;;;;;;4.68;1.88;;;;;;;9.21;100.00;98533.31;4992931;28;20056;-64
2023/10/04 07:08:08;;;;;;;5.93;1.95;;;;;;;9.35;100.00;98531.41;4982869;28;20057;-64
2023/10/04 07:10:36;;;;;;;5.97;2.00;;;;;;;9.49;100.00;98525.91;5006646;28;20128;-65
2023/10/04 07:13:03;;;;;;;6.40;2.25;;;;;;;9.61;100.00;98520.66;4978588;28;20065;-60
2023/10/04 07:15:35;;;;;;;7.50;1.83;;;;;;;9.75;100.00;98526.81;4989345;28;20050;-63
2023/10/04 07:18:06;;;;;;;5.75;2.00;;;;;;;9.86;100.00;98526.13;4976137;28;20057;-63
2023/10/04 07:20:34;;;;;;;6.28;1.70;;;;;;;9.96;100.00;98522.94;5001579;28;20042;-62
2023/10/04 07:23:03;;;;;;;4.70;1.73;;;;;;;10.09;100.00;98532.81;5001171;28;20042;-64
2023/10/04 07:25:31;;;;;;;6.03;1.65;;;;;;;10.19;100.00;98526.06;4996580;28;20121;-61
2023/10/04 07:28:01;;;;;;;4.32;1.35;;;;;;;10.31;100.00;98532.41;4987470;28;20064;-63
2023/10/04 07:30:29;;;;;;;3.80;1.20;;;;;;;10.41;100.00;98537.34;5002139;28;20041;-64
2023/10/04 07:32:57;;;;;;;6.85;1.33;;;;;;;10.53;100.00;98538.31;5001098;28;20034;-64
2023/10/04 07:35:25;;;;;;;6.32;1.60;;;;;;;10.63;100.00;98536.97;4999784;28;20045;-63
2023/10/04 07:37:54;;;;;;;3.67;1.50;;;;;;;10.73;100.00;98539.97;5002163;28;20045;-63
2023/10/04 07:40:24;;;;;;;;;;;;;;;10.83;100.00;98546.78;5001139;28;20046;-64
2023/10/04 07:42:53;;;;;;;4.53;1.48;;;;;;;10.95;100.00;98546.84;5001396;28;19921;-64
2023/10/04 07:45:22;;;;;;;6.22;1.45;;;;;;;11.08;100.00;98540.44;5001399;28;20050;-66
2023/10/04 07:47:49;;;;;;;4.50;1.58;;;;;;;11.18;100.00;98551.59;4996236;28;20056;-65
2023/10/04 07:50:22;;;;;;;5.60;1.45;;;;;;;11.36;100.00;98545.34;5004409;28;20046;-66
2023/10/04 07:52:52;;;;;;;6.18;1.73;;;;;;;11.48;100.00;98549.97;5001178;28;20056;-65
2023/10/04 07:55:18;;;;;;;5.05;1.45;;;;;;;11.61;100.00;98549.78;5001138;28;20136;-65
2023/10/04 07:57:47;;;;;;;6.50;1.85;;;;;;;11.74;100.00;98554.22;5001106;28;20053;-66
2023/10/04 08:00:15;;;;;;;6.10;1.48;;;;;;;11.86;100.00;98546.09;5001053;28;20048;-65
2023/10/04 08:02:49;;;;;;;6.18;1.30;;;;;;;12.01;100.00;98553.81;4999748;28;20049;-66
2023/10/04 08:05:20;;;;;;;3.38;0.88;;;;;;;12.12;100.00;98549.50;5000571;28;20045;-63
2023/10/04 08:07:48;;;;;;;6.93;1.35;;;;;;;12.28;100.00;98553.44;5002000;28;20123;-65
2023/10/04 08:10:23;;;;;;;5.55;1.65;;;;;;;12.38;100.00;98550.13;5001236;28;20050;-63
2023/10/04 08:12:54;;;;;;;6.68;1.33;;;;;;;12.49;100.00;98543.88;4999518;28;20117;-65
2023/10/04 08:15:25;;;;;;;4.38;1.10;;;;;;;12.53;100.00;98544.22;4998641;28;20046;-64
2023/10/04 08:17:53;;;;;;;5.85;1.75;;;;;;;12.58;100.00;98546.25;5001107;28;20050;-62
2023/10/04 08:20:24;;;;;;;4.57;1.20;;;;;;;12.64;100.00;98547.19;5000952;28;20057;-69
2023/10/04 08:22:50;;;;;;;6.03;1.40;;;;;;;12.75;100.00;98554.50;4998029;28;20044;-67
2023/10/04 08:25:23;;;;;;;8.00;1.50;;;;;;;12.85;98.60;98540.31;5001408;28;20041;-70
2023/10/04 08:27:50;;;;;;;4.78;1.52;;;;;;;12.90;100.00;98548.59;5000551;28;20314;-66
2023/10/04 08:30:18;;;;;;;7.72;1.20;;;;;;;12.96;100.00;98550.38;5001739;28;20045;-61
2023/10/04 08:32:47;;;;;;;6.80;1.63;;;;;;;13.05;97.36;98550.81;5006123;28;20541;-61
2023/10/04 08:35:21;;;;;;;5.30;1.30;;;;;;;13.18;97.68;98557.91;5007073;28;20042;-62
2023/10/04 08:37:49;;;;;;;4.40;1.10;;;;;;;13.27;93.76;98551.00;5007719;28;20049;-60
2023/10/04 08:40:18;;;;;;;2.92;1.08;;;;;;;13.36;93.86;98537.03;5005436;28;20580;-68
2023/10/04 08:42:48;;;;;;;3.85;0.80;;;;;;;13.47;91.55;98544.34;5005079;28;20038;-65
2023/10/04 08:45:15;;;;;;;4.78;1.17;;;;;;;13.50;91.81;98538.41;5004998;28;20108;-66
2023/10/04 08:47:47;;;;;;;7.38;1.10;;;;;;;13.58;91.27;98536.38;5004289;28;20042;-65
2023/10/04 08:50:19;;;;;;;5.50;1.50;;;;;;;13.60;91.62;98543.25;5004619;28;20125;-65
2023/10/04 08:52:47;;;;;;;2.38;1.10;;;;;;;13.60;91.34;98532.34;5003142;28;20528;-66
2023/10/04 08:55:17;;;;;;;4.75;1.80;;;;;;;13.62;91.67;98530.22;5004436;28;20528;-61
2023/10/04 08:57:44;;;;;;;4.65;1.45;;;;;;;13.77;90.38;98526.97;5003364;28;20577;-63
2023/10/04 09:00:14;;;;;;;5.60;1.35;;;;;;;13.92;87.21;98528.28;5005611;28;20048;-63
2023/10/04 09:02:58;;;;;;;4.07;1.08;;;;;;;13.83;84.51;98527.88;5002368;28;20072;-61
2023/10/04 09:05:28;;;;;;;4.88;1.35;;;;;;;13.77;85.36;98526.13;5002267;28;20049;-64
2023/10/04 09:07:55;;;;;;;5.15;1.75;;;;;;;13.85;85.44;98519.44;5004458;28;20120;-65
2023/10/04 09:10:24;;;;;;;3.15;1.10;;;;;;;13.98;86.08;98513.72;5004803;28;20049;-64
2023/10/04 09:12:51;;;;;;;4.22;1.10;;;;;;;14.12;86.83;98519.66;4980481;28;20799;-64
2023/10/04 09:15:25;;;;;;;3.70;1.10;;;;;;;14.22;86.25;98527.16;4984511;28;20465;-66
2023/10/04 09:17:57;;;;;;;6.15;1.20;;;;;;;14.27;83.29;98519.06;5004250;28;20041;-67
2023/10/04 09:20:32;;;;;;;;;;;;;;;14.25;83.70;98513.06;5005141;28;20030;-66
2023/10/04 09:22:59;;;;;;;4.43;1.33;;;;;;;14.26;82.14;98519.34;5002472;28;19932;-69
2023/10/04 09:25:37;;;;;;;4.18;1.58;;;;;;;14.31;82.77;98513.97;5003536;28;20132;-68
2023/10/04 09:28:05;;;;;;;2.63;0.90;;;;;;;14.43;82.98;98509.25;5001288;28;20045;-66
2023/10/04 09:30:34;;;;;;;4.57;0.90;;;;;;;14.53;83.58;98511.28;5001834;28;20046;-65
2023/10/04 09:33:07;;;;;;;4.60;1.00;;;;;;;14.63;83.59;98513.34;5002588;28;20033;-69
2023/10/04 09:35:44;;;;;;;4.05;0.88;;;;;;;14.71;81.87;98514.84;5002561;28;20050;-66
2023/10/04 09:38:17;;;;;;;6.65;1.30;;;;;;;14.72;81.00;98507.47;5004120;28;20168;-67
2023/10/04 09:40:55;;;;;;;6.05;1.38;;;;;;;14.78;81.40;98499.13;5003541;28;20052;-66
2023/10/04 09:43:37;;;;;;;3.67;1.15;;;;;;;14.87;80.94;98509.59;5002203;28;20144;-66
2023/10/04 09:46:09;;;;;;;4.82;1.10;;;;;;;14.89;79.05;98508.28;4997064;28;20129;-66
2023/10/04 09:48:41;;;;;;;6.18;0.90;;;;;;;15.01;79.54;98504.59;5001320;28;20037;-65
2023/10/04 09:51:09;;;;;;;6.57;1.10;;;;;;;15.04;79.77;98502.19;5003852;28;20041;-66
2023/10/04 09:53:40;;;;;;;4.30;0.93;;;;;;;15.00;78.76;98494.78;4998692;28;20276;-66
2023/10/04 09:56:12;;;;;;;5.00;1.15;;;;;;;15.18;79.24;98499.06;5004060;28;20466;-66
2023/10/04 09:58:48;;;;;;;4.43;1.13;;;;;;;15.17;78.04;98487.34;5003823;28;20050;-69
2023/10/04 10:01:19;;;;;;;2.88;0.90;;;;;;;15.21;79.80;98495.84;5003503;28;20073;-67
2023/10/04 10:03:56;;;;;;;3.40;1.00;;;;;;;15.28;77.45;98490.19;4999605;28;20053;-69
2023/10/04 10:06:26;;;;;;;3.58;1.20;;;;;;;15.20;75.73;98499.66;5002878;28;20064;-68
2023/10/04 10:09:05;;;;;;;4.22;1.40;;;;;;;15.15;76.95;98494.16;5003215;28;20050;-66
2023/10/04 10:11:32;;;;;;;7.18;1.20;;;;;;;15.00;77.10;98506.50;5003057;28;20048;-67
2023/10/04 10:14:03;;;;;;;7.25;1.58;;;;;;;15.07;79.35;98514.50;5002673;28;20513;-67
2023/10/04 10:16:33;;;;;;;4.95;1.30;;;;;;;15.00;78.52;98511.97;5002944;28;20045;-66
2023/10/04 10:19:02;;;;;;;5.85;1.40;;;;;;;14.85;76.89;98515.31;5002803;28;20038;-65
2023/10/04 10:22:03;;;;;;;6.70;1.80;;;;;;;14.90;77.57;98503.66;5001935;28;20042;-67
2023/10/04 10:24:30;;;;;;;4.72;1.63;;;;;;;15.04;76.95;98504.09;4999980;28;20057;-63
2023/10/04 10:27:07;;;;;;;4.47;1.25;;;;;;;15.19;75.84;98498.81;5003185;28;20057;-64
2023/10/04 10:29:36;;;;;;;3.85;1.20;;;;;;;15.34;75.52;98508.28;5003366;28;20131;-66
2023/10/04 10:32:09;;;;;;;3.45;0.90;;;;;;;15.26;69.68;98512.28;5001434;28;20045;-65
2023/10/04 10:34:35;;;;;;;3.40;1.35;;;;;;;15.45;71.66;98518.22;5002014;28;20128;-63
2023/10/04 10:37:10;;;;;;;3.95;1.00;;;;;;;15.54;70.90;98504.94;5003305;28;20045;-64
2023/10/04 10:39:43;;;;;;;6.60;1.00;;;;;;;15.45;69.83;98512.75;5002856;28;20037;-62
2023/10/04 10:42:11;;;;;;;4.32;1.23;;;;;;;15.63;71.72;98508.06;5002731;28;20744;-65
2023/10/04 10:44:41;;;;;;;4.20;1.20;;;;;;;15.67;71.95;98506.44;5002392;28;20057;-62
2023/10/04 10:47:25;;;;;;;4.55;0.90;;;;;;;15.73;71.22;98510.03;5002370;28;20056;-61
2023/10/04 10:49:57;;;;;;;8.95;1.10;;;;;;;15.76;69.11;98493.16;5000690;28;20077;-69
2023/10/04 10:52:25;;;;;;;3.30;1.00;;;;;;;15.82;69.34;98500.28;5002961;28;20046;-65
2023/10/04 10:54:53;;;;;;;5.57;1.05;;;;;;;15.96;69.98;98503.47;5001622;28;20109;-65
2023/10/04 10:57:21;;;;;;;3.22;0.80;;;;;;;16.07;69.30;98500.84;5001537;28;20050;-63
2023/10/04 10:59:53;;;;;;;4.88;0.82;;;;;;;16.07;68.05;98500.84;4998172;28;20060;-61
2023/10/04 11:02:20;;;;;;;;;;;;;;;16.04;67.88;98499.47;5003159;28;20042;-61
2023/10/04 11:04:47;;;;;;;5.57;1.42;;;;;;;16.02;69.23;98490.69;5001523;28;19925;-62
2023/10/04 11:07:13;;;;;;;4.38;1.00;;;;;;;16.09;68.09;98490.47;5002596;28;20454;-62
2023/10/04 11:09:40;;;;;;;4.40;0.93;;;;;;;16.03;65.54;98494.25;5002030;28;20080;-61
2023/10/04 11:12:13;;;;;;;3.35;0.80;;;;;;;16.01;67.60;98497.25;5002717;28;20117;-67
2023/10/04 11:14:41;;;;;;;4.40;0.90;;;;;;;16.05;66.29;98484.72;5001481;28;20770;-66
2023/10/04 11:17:10;;;;;;;4.15;1.02;;;;;;;15.76;67.63;98484.13;5002287;28;20046;-67
2023/10/04 11:19:36;;;;;;;2.97;1.20;;;;;;;15.89;67.65;98488.34;5002423;28;20115;-64
2023/10/04 11:22:03;;;;;;;6.20;0.98;;;;;;;15.94;67.68;98486.53;5001141;28;20045;-61
2023/10/04 11:24:35;;;;;;;4.07;0.90;;;;;;;16.12;67.98;98482.59;4997939;28;20033;-60
2023/10/04 11:27:01;;;;;;;4.65;1.10;;;;;;;16.01;67.37;98489.03;5002814;28;20038;-62
2023/10/04 11:29:30;;;;;;;3.25;0.95;;;;;;;15.92;66.76;98476.91;5001780;28;20057;-61
2023/10/04 11:31:58;;;;;;;2.88;0.80;;;;;;;15.97;66.95;98480.56;5002047;28;20542;-61
2023/10/04 11:34:28;;;;;;;4.40;1.05;;;;;;;16.18;68.32;98477.97;5002048;28;20128;-61
2023/10/04 11:36:59;;;;;;;2.45;0.90;;;;;;;16.29;67.54;98476.13;4997216;28;20420;-61
2023/10/04 11:39:33;;;;;;;;;;;;;;;16.15;65.39;98466.75;5000919;28;20401;-60
2023/10/04 11:42:02;;;;;;;4.93;1.00;;;;;;;16.14;66.06;98465.91;5011427;28;19921;-60
2023/10/04 11:44:34;;;;;;;3.20;0.93;;;;;;;16.23;66.11;98463.53;5001747;28;20058;-66
2023/10/04 11:47:08;;;;;;;2.67;1.00;;;;;;;16.37;65.87;98463.91;5002505;28;20048;-66
2023/10/04 11:49:38;;;;;;;2.75;0.65;;;;;;;16.36;63.41;98463.06;5001308;28;20402;-65